Terminal Aerodrome Forecast
Issued by NWS Burlington, VT

Home | Current Version | Previous Version | Text Only | Print | Product List | Glossary On
Versions: 1 2 3 4 5 6 7 8 9 10 11 12 13 14 15
000
FTUS41 KBTV 211410 AAB
TAFBTV
TAF AMD
KBTV 211410Z 2114/2212 VRB03KT P6SM BKN028 OVC050
     FM211700 VRB03KT P6SM BKN040
     FM220300 VRB03KT P6SM OVC030
     FM220700 VRB03KT P6SM BKN020=

USA.gov is the U.S. government's official web portal to all federal, state and local government web resources and services.